Stations météo

réclame
Mon MeteoGroup
Puerto de san Isidro, Espagne (8057): Température de l'air & dewpoint: 12.02.2019 01:00:00 - 18.02.2019 01:00:00 (CET)Puerto de san Isidro, Espagne (8057): Vitesse du vent & gusts: 12.02.2019 01:00:00 - 18.02.2019 01:00:00 (CET)Puerto de san Isidro, Espagne (8057): Direction du vent: 12.02.2019 01:00:00 - 18.02.2019 01:00:00 (CET)Puerto de san Isidro, Espagne (8057): visibility: 12.02.2019 01:00:00 - 18.02.2019 01:00:00 (CET)Puerto de san Isidro, Espagne (8057): Ensoleillement: 12.02.2019 01:00:00 - 18.02.2019 01:00:00 (CET)Puerto de san Isidro, Espagne (8057): Quantités de précipitations: 12.02.2019 01:00:00 - 18.02.2019 01:00:00 (CET)
Date & Time tt [°C] td [°C] ff [km/h] ff [knt] fx [km/h] fx [knt] dd vv [km] sd [min] rr [mm]
18.02.2019 01:00:00 - - - - - - - - - -
18.02.2019 00:00:00 3,4 -5,4 7 4 32 18 ESE 20 0 0,0
17.02.2019 23:00:00 1,7 -5,4 2 1 10 5 NW 20 0 0,0
17.02.2019 22:00:00 2,4 -4,5 3 2 8 4 ENE 20 0 0,0
17.02.2019 21:00:00 2,7 -4,2 4 2 15 8 NW 20 0 0,0
17.02.2019 20:00:00 2,8 -3,9 5 3 18 10 WNW 20 0 0,0
17.02.2019 19:00:00 5,1 -4,8 11 6 27 15 S 20 0 -
17.02.2019 18:00:00 5,8 -3,9 9 5 32 17 S 20 31 0,0
17.02.2019 17:00:00 7,5 -4,2 13 7 34 18 S 20 60 0,0
17.02.2019 16:00:00 7,5 -5,7 20 11 38 20 S 20 60 0,0
17.02.2019 15:00:00 6,8 -3,9 18 10 36 19 S 20 60 0,0
17.02.2019 14:00:00 6,2 -2,7 12 7 37 20 SSE 20 57 0,0
17.02.2019 13:00:00 5,8 -2,0 6 3 35 19 SE 20 53 -
17.02.2019 12:00:00 5,4 -2,2 8 4 31 17 SSE 20 50 0,0
17.02.2019 11:00:00 5,3 -3,0 17 9 - - S 20 60 0,0
17.02.2019 10:00:00 4,8 -2,7 - - - - - 20 60 0,0
17.02.2019 09:00:00 4,4 -2,2 - - - - - 20 12 0,0
17.02.2019 08:00:00 4,3 -2,7 - - - - - 20 0 0,0
17.02.2019 07:00:00 3,8 -2,0 14 7 30 16 SSE 20 0 -
17.02.2019 06:00:00 3,0 -3,9 8 4 24 13 ESE 20 0 0,0
17.02.2019 05:00:00 4,0 -3,3 14 8 30 16 SE 20 0 0,0
17.02.2019 04:00:00 2,9 -4,5 7 4 21 11 ESE 20 0 0,0
17.02.2019 03:00:00 4,7 -4,8 13 7 - - S 20 0 0,0
17.02.2019 02:00:00 5,7 -5,1 - - - - - 20 0 0,0
17.02.2019 01:00:00 6,2 -4,5 - - - - - 20 0 -
17.02.2019 00:00:00 6,4 -2,7 - - - - - 20 0 0,0
16.02.2019 23:00:00 6,2 -3,6 - - - - - 20 0 0,0
16.02.2019 22:00:00 3,5 -3,0 7 4 17 9 E 20 0 0,0
16.02.2019 21:00:00 5,3 -3,0 6 4 29 16 E 20 0 0,0
16.02.2019 20:00:00 6,4 -3,9 10 5 30 16 SE 20 0 0,0
16.02.2019 19:00:00 7,6 -5,1 9 5 29 16 SE 20 0 -
16.02.2019 18:00:00 8,6 -7,5 11 6 26 14 S 20 57 0,0
16.02.2019 17:00:00 9,5 -6,7 12 7 23 12 S 20 60 0,0
16.02.2019 16:00:00 9,1 -4,5 10 5 18 10 S 20 60 0,0
16.02.2019 15:00:00 10,6 -4,8 5 3 26 14 ESE 20 60 0,0
16.02.2019 14:00:00 8,8 -4,8 18 10 25 14 SSE 20 60 0,0
16.02.2019 13:00:00 8,5 -4,8 11 6 21 12 ESE 20 60 -
16.02.2019 12:00:00 7,6 -4,5 13 7 19 11 E 20 60 0,0
16.02.2019 11:00:00 6,4 -3,9 8 4 14 7 E 20 60 0,0
16.02.2019 10:00:00 4,2 -4,2 6 4 15 8 ESE 20 60 0,0
16.02.2019 09:00:00 1,7 -5,7 6 3 10 5 ESE 20 10 0,0
16.02.2019 08:00:00 -1,2 -6,7 3 1 9 5 SE 20 0 0,0
16.02.2019 07:00:00 2,0 -6,7 7 4 13 7 ESE 20 0 -
16.02.2019 06:00:00 0,5 -7,5 6 4 9 5 ESE 20 0 0,0
16.02.2019 05:00:00 -0,1 -8,6 2 1 12 7 SW 20 0 0,0
16.02.2019 04:00:00 0,5 -8,6 1 1 8 4 NNW 20 0 0,0
16.02.2019 03:00:00 -0,1 -8,2 6 3 8 5 W 20 0 0,0
16.02.2019 02:00:00 1,5 -7,5 4 2 9 5 W 20 0 0,0
16.02.2019 01:00:00 0,3 -7,1 4 2 8 5 W 20 0 -
16.02.2019 00:00:00 1,2 -7,8 3 2 18 10 WNW 20 0 0,0
15.02.2019 23:00:00 1,6 -7,1 4 2 15 8 W 20 0 0,0
15.02.2019 22:00:00 1,3 -4,5 6 3 8 4 WNW 20 0 0,0
15.02.2019 21:00:00 3,2 -3,3 4 2 12 6 WNW 20 0 0,0
15.02.2019 20:00:00 3,4 -2,5 9 5 16 9 WNW 20 0 0,0
15.02.2019 19:00:00 4,6 -2,0 12 6 20 11 W 20 0 -
15.02.2019 18:00:00 7,8 -4,8 3 2 10 5 W 20 56 0,0
15.02.2019 17:00:00 9,5 -5,7 3 2 9 5 NNW 20 60 0,0
15.02.2019 16:00:00 11,2 -5,7 1 1 5 3 SSW 20 60 0,0
15.02.2019 15:00:00 10,1 -6,0 3 2 6 3 SE 20 60 0,0
15.02.2019 14:00:00 8,8 -5,4 5 3 10 5 SSE 20 60 0,0
15.02.2019 13:00:00 8,3 -4,8 5 3 9 5 SE 20 60 -
15.02.2019 12:00:00 7,4 -5,1 5 3 11 6 ESE 20 60 0,0
15.02.2019 11:00:00 7,0 -4,8 3 1 8 5 E 20 60 0,0
15.02.2019 10:00:00 4,4 -5,4 4 2 9 5 E 20 60 0,0
15.02.2019 09:00:00 0,8 -6,0 3 2 14 7 E 20 8 0,0
15.02.2019 08:00:00 0,0 -6,4 5 3 13 7 SE 20 0 0,0
15.02.2019 07:00:00 0,1 -5,7 6 3 11 6 SE 20 0 -
15.02.2019 06:00:00 -1,3 -6,7 2 1 4 2 E 20 0 0,0
15.02.2019 05:00:00 0,2 -6,7 3 1 10 5 SSE 20 0 0,0
15.02.2019 04:00:00 1,8 -6,4 4 2 9 5 ESE 20 0 0,0
15.02.2019 03:00:00 1,9 -5,7 5 3 16 9 SE 20 0 0,0
15.02.2019 02:00:00 3,6 -5,4 14 7 24 13 ENE 20 0 0,0
15.02.2019 01:00:00 2,9 -5,1 10 6 31 17 E 20 0 -
15.02.2019 00:00:00 4,5 -6,0 25 14 34 18 ESE 20 0 0,0
14.02.2019 23:00:00 4,3 -5,1 25 13 32 17 ESE 20 0 0,0
14.02.2019 22:00:00 4,6 -4,8 21 11 29 16 ESE 20 0 0,0
14.02.2019 21:00:00 3,6 -4,5 17 9 26 14 E 20 0 0,0
14.02.2019 20:00:00 4,9 -4,5 11 6 29 16 E 20 0 0,0
14.02.2019 19:00:00 5,5 -4,5 10 5 21 11 E 20 0 -
14.02.2019 18:00:00 7,3 -4,5 10 6 35 19 E 20 53 0,0
14.02.2019 17:00:00 9,0 -6,4 16 9 34 18 ESE 20 60 0,0
14.02.2019 16:00:00 9,7 -5,1 10 6 33 18 E 20 60 0,0
14.02.2019 15:00:00 9,9 -4,8 6 4 40 21 ESE 20 60 0,0
14.02.2019 14:00:00 8,8 -5,4 13 7 43 23 ESE 20 60 0,0
14.02.2019 13:00:00 7,8 -5,7 18 10 45 25 E 20 60 -
14.02.2019 12:00:00 6,4 -5,7 20 11 41 22 E 20 60 0,0
14.02.2019 11:00:00 5,9 -5,4 23 12 39 21 E 20 60 0,0
14.02.2019 10:00:00 3,7 -6,7 17 9 41 22 E 20 60 0,0
14.02.2019 09:00:00 3,3 -7,8 24 13 46 25 E 20 5 0,0
14.02.2019 08:00:00 3,8 -9,4 25 13 37 20 E 20 0 0,0
14.02.2019 07:00:00 3,2 -10,3 20 11 27 15 ESE 20 0 -
14.02.2019 06:00:00 1,3 -10,3 11 6 19 10 E 20 0 0,0
14.02.2019 05:00:00 1,9 -9,9 5 3 28 15 ENE 20 0 0,0
14.02.2019 04:00:00 2,7 -8,2 15 8 29 15 E 20 0 0,0
14.02.2019 03:00:00 4,2 -8,2 17 9 - - ESE 20 0 0,0
14.02.2019 02:00:00 2,1 -6,7 10 6 22 12 E 20 0 0,0
14.02.2019 01:00:00 2,6 -6,7 10 6 20 11 E 20 0 -
14.02.2019 00:00:00 3,7 -7,1 - - - - - 20 0 0,0
13.02.2019 23:00:00 2,4 -6,7 5 3 17 9 E 20 0 0,0
13.02.2019 22:00:00 2,5 -6,7 7 4 11 6 ESE 20 0 0,0
13.02.2019 21:00:00 2,5 -6,7 7 4 12 6 ESE 20 0 0,0
13.02.2019 20:00:00 3,2 -6,4 5 3 16 8 ESE 20 0 0,0
13.02.2019 19:00:00 4,5 -5,7 13 7 16 9 S 20 0 -
13.02.2019 18:00:00 6,3 -7,1 2 1 14 8 WNW 20 51 0,0
13.02.2019 17:00:00 9,4 -7,8 3 1 5 3 WSW 20 60 0,0
13.02.2019 16:00:00 10,3 -7,8 3 2 5 3 W 20 60 0,0
13.02.2019 15:00:00 9,5 -9,0 4 2 11 6 ESE 20 60 0,0
13.02.2019 14:00:00 8,9 -7,8 4 2 10 6 SSE 20 60 0,0
13.02.2019 13:00:00 - - - - - - - - - -
13.02.2019 12:00:00 7,7 -9,4 4 2 8 5 ESE 20 60 0,0
13.02.2019 11:00:00 5,2 -9,4 0 0 4 2 N 20 60 0,0
13.02.2019 10:00:00 2,8 -10,8 2 1 10 6 WSW 20 60 0,0
13.02.2019 09:00:00 -0,5 -12,2 6 4 13 7 WNW 20 3 0,0
13.02.2019 08:00:00 -1,0 -11,7 10 5 15 8 W 20 0 0,0
13.02.2019 07:00:00 -0,4 -12,8 8 4 10 6 WNW 20 0 -
13.02.2019 06:00:00 -0,3 -13,9 5 3 9 5 W 20 0 0,0
13.02.2019 05:00:00 -1,2 -13,3 5 3 7 4 NW 20 0 0,0
13.02.2019 04:00:00 -1,9 -12,2 4 2 6 3 WNW 20 0 0,0
13.02.2019 03:00:00 -2,0 -9,4 3 2 5 3 WNW 20 0 0,0
13.02.2019 02:00:00 -1,5 -8,6 3 2 8 4 ESE 20 0 0,0
13.02.2019 01:00:00 0,9 -7,5 5 3 9 5 SE 20 0 -
13.02.2019 00:00:00 0,5 -7,1 6 3 9 5 E 20 0 0,0
12.02.2019 23:00:00 -0,7 -6,7 2 1 6 4 S 20 0 0,0
12.02.2019 22:00:00 0,1 -6,4 3 2 8 4 ESE 20 0 0,0
12.02.2019 21:00:00 0,9 -6,4 3 1 6 4 ESE 20 0 0,0
12.02.2019 20:00:00 1,8 -7,1 3 2 8 4 E 20 0 0,0
12.02.2019 19:00:00 3,3 -7,8 4 2 8 5 SE 20 0 -
12.02.2019 18:00:00 4,9 -9,9 8 4 14 8 SE 20 49 0,0
12.02.2019 17:00:00 7,4 -10,8 5 3 10 5 ESE 20 60 0,0
12.02.2019 16:00:00 7,3 -8,6 5 3 11 6 S 20 60 0,0
12.02.2019 15:00:00 8,6 -13,3 2 1 8 5 SE 20 60 0,0
12.02.2019 14:00:00 7,8 -13,3 4 2 10 5 ESE 20 60 0,0
12.02.2019 13:00:00 - - - - - - - - - -
12.02.2019 12:00:00 6,8 -10,3 1 1 5 3 S 20 60 0,0
12.02.2019 11:00:00 4,1 -13,9 3 2 13 7 W 20 60 0,0
12.02.2019 10:00:00 0,6 -15,1 9 5 19 10 WNW 20 60 0,0
12.02.2019 09:00:00 -0,8 -13,9 14 8 19 11 W 20 1 0,0
12.02.2019 08:00:00 -4,5 -11,7 1 1 6 3 SSE 20 0 0,0
12.02.2019 07:00:00 -5,4 -12,2 4 2 6 3 WNW 20 0 -
12.02.2019 06:00:00 -4,9 -12,8 2 1 5 3 W 20 0 0,0
12.02.2019 05:00:00 -3,2 -13,9 3 2 5 3 ESE 20 0 0,0
12.02.2019 04:00:00 -2,2 -15,1 2 1 10 5 ESE 20 0 0,0
12.02.2019 03:00:00 -1,8 -15,1 5 3 10 5 E 20 0 0,0
12.02.2019 02:00:00 -0,9 -18,0 3 2 10 5 NNW 20 0 0,0
12.02.2019 01:00:00 -2,3 -12,8 3 2 9 5 W 20 0 -

tt = Température de l'air
td = dewpoint
ff = Vitesse du vent
fx = gusts
dd = Direction du vent
vv = visibility
sd = Ensoleillement
rr = Quantités de précipitations

stations d'obs. à proximité